Time;durP1;ratioP1;P1;durP2;ratioP2;P2;SDS_P1;SDS_P2;PMS_P1;PMS_P2;Temp;Humidity;BMP_temperature;BMP_pressure;BME280_temperature;BME280_humidity;BME280_pressure;Samples;Min_cycle;Max_cycle;Signal;HPM_P1;HPM_P2
2023/01/04 00:00:34;;;;;;;1.55;0.75;;;8.90;99.90;;;;;;20510109;28;20030;-40
2023/01/04 00:10:35;;;;;;;3.20;1.55;;;8.90;99.90;;;;;;20506537;28;20130;-41
2023/01/04 00:20:36;;;;;;;2.75;1.52;;;8.80;99.90;;;;;;20500773;28;20045;-40
2023/01/04 00:30:37;;;;;;;1.88;0.80;;;8.80;99.90;;;;;;20505048;28;20395;-41
2023/01/04 00:40:38;;;;;;;2.70;1.25;;;8.80;99.90;;;;;;20517378;28;20386;-41
2023/01/04 00:50:39;;;;;;;2.70;1.00;;;8.80;99.90;;;;;;20507347;28;20494;-40
2023/01/04 01:00:40;;;;;;;3.97;1.02;;;8.90;99.90;;;;;;20506303;28;20087;-40
2023/01/04 01:10:41;;;;;;;2.35;1.00;;;9.00;99.90;;;;;;20501937;28;20087;-40
2023/01/04 01:20:44;;;;;;;3.03;1.08;;;9.00;99.90;;;;;;20492490;28;20058;-40
2023/01/04 01:30:45;;;;;;;3.13;1.45;;;9.10;99.90;;;;;;20492969;28;20190;-40
2023/01/04 01:40:46;;;;;;;18.92;2.08;;;9.20;99.90;;;;;;20506766;28;20103;-41
2023/01/04 01:50:52;;;;;;;3.25;1.35;;;9.30;99.90;;;;;;20496896;28;20107;-40
2023/01/04 02:00:53;;;;;;;2.60;1.52;;;9.40;99.90;;;;;;20498400;28;20679;-41
2023/01/04 02:10:55;;;;;;;3.47;1.25;;;9.50;99.90;;;;;;20501696;28;20150;-41
2023/01/04 02:21:05;;;;;;;3.13;1.38;;;9.70;99.90;;;;;;20515988;28;20042;-41
2023/01/04 02:31:31;;;;;;;2.33;1.02;;;9.90;99.90;;;;;;20502888;28;20070;-42
2023/01/04 02:41:40;;;;;;;3.67;1.90;;;10.10;99.90;;;;;;20505270;28;20078;-41
2023/01/04 02:51:41;;;;;;;4.47;2.03;;;10.20;99.90;;;;;;20498863;28;20278;-41
2023/01/04 03:12:32;;;;;;;2.75;1.75;;;10.30;99.90;;;;;;20489209;28;22411;-41
2023/01/04 03:54:13;;;;;;;2.72;1.10;;;10.60;99.90;;;;;;20504712;28;20045;-41
2023/01/04 04:14:33;;;;;;;2.45;1.33;;;10.80;99.90;;;;;;20508013;28;20283;-41
2023/01/04 04:24:34;;;;;;;2.72;1.60;;;10.80;99.90;;;;;;20508217;28;20813;-41
2023/01/04 04:34:36;;;;;;;2.13;1.30;;;10.90;99.90;;;;;;20510523;28;20050;-41
2023/01/04 04:44:37;;;;;;;1.80;0.88;;;11.00;99.90;;;;;;20513257;28;20042;-41
2023/01/04 04:54:38;;;;;;;2.47;1.13;;;11.10;99.90;;;;;;20506497;28;20066;-41
2023/01/04 05:04:39;;;;;;;3.17;1.95;;;11.10;99.90;;;;;;20504753;28;20121;-41
2023/01/04 05:14:40;;;;;;;2.28;1.15;;;11.00;99.90;;;;;;20506217;28;20070;-41
2023/01/04 05:24:41;;;;;;;2.65;0.88;;;10.90;99.90;;;;;;20498558;28;20125;-41
2023/01/04 05:34:42;;;;;;;1.90;0.75;;;10.90;99.90;;;;;;20498300;28;20038;-40
2023/01/04 05:44:43;;;;;;;2.75;1.35;;;10.90;99.90;;;;;;20507706;28;20058;-40
2023/01/04 05:54:44;;;;;;;4.55;2.40;;;10.90;99.90;;;;;;20500373;28;20162;-40
2023/01/04 06:04:46;;;;;;;2.80;1.40;;;10.90;99.90;;;;;;20502687;28;20553;-40
2023/01/04 06:14:47;;;;;;;2.30;1.23;;;10.90;99.90;;;;;;20496520;28;20150;-41
2023/01/04 06:24:48;;;;;;;3.47;1.27;;;11.00;99.90;;;;;;20496873;28;20096;-41
2023/01/04 06:34:49;;;;;;;1.55;0.50;;;11.00;99.90;;;;;;20504085;28;20858;-41
2023/01/04 06:44:50;;;;;;;1.33;0.55;;;11.20;99.90;;;;;;20502392;28;20494;-41
2023/01/04 06:54:51;;;;;;;2.45;0.93;;;11.30;99.90;;;;;;20488565;28;20889;-41
2023/01/04 07:04:52;;;;;;;3.53;1.83;;;11.20;99.90;;;;;;20492009;28;20780;-41
2023/01/04 07:14:53;;;;;;;1.63;0.80;;;11.20;99.90;;;;;;20497861;28;20672;-40
2023/01/04 07:24:54;;;;;;;1.98;1.25;;;11.20;99.90;;;;;;20495804;28;20494;-41
2023/01/04 07:34:55;;;;;;;1.92;0.80;;;11.20;99.90;;;;;;20504434;28;20090;-40
2023/01/04 07:44:56;;;;;;;3.28;1.40;;;11.10;99.90;;;;;;20507482;28;20078;-40
2023/01/04 07:54:57;;;;;;;2.90;1.15;;;11.10;99.90;;;;;;20507432;28;22355;-40
2023/01/04 08:04:58;;;;;;;2.90;1.00;;;11.10;99.90;;;;;;20499936;28;20034;-40
2023/01/04 08:15:00;;;;;;;1.40;0.60;;;11.10;99.90;;;;;;20501888;28;20054;-40
2023/01/04 08:25:01;;;;;;;1.48;0.88;;;11.10;99.90;;;;;;20494635;28;20118;-40
2023/01/04 08:35:02;;;;;;;1.00;0.38;;;11.20;99.90;;;;;;20503356;28;20141;-41
2023/01/04 08:45:04;;;;;;;3.58;0.55;;;11.20;99.90;;;;;;20500242;28;20151;-39
2023/01/04 08:55:05;;;;;;;1.92;0.47;;;11.30;99.90;;;;;;20498736;28;20142;-40
2023/01/04 09:05:06;;;;;;;1.15;0.65;;;11.30;99.90;;;;;;20510666;28;20105;-39
2023/01/04 09:15:08;;;;;;;1.50;0.68;;;11.40;99.90;;;;;;20452437;28;20143;-40
2023/01/04 09:25:09;;;;;;;1.58;0.85;;;11.50;99.90;;;;;;20497492;28;20074;-40
2023/01/04 09:35:11;;;;;;;2.70;0.70;;;11.60;99.90;;;;;;20466628;28;24535;-40
2023/01/04 09:45:19;;;;;;;2.08;0.70;;;11.80;99.90;;;;;;20446924;28;20441;-40
2023/01/04 09:55:26;;;;;;;3.30;1.80;;;11.80;99.90;;;;;;20463042;28;20066;-41
2023/01/04 10:05:30;;;;;;;4.60;1.20;;;11.90;99.90;;;;;;20491835;28;20510;-40
2023/01/04 10:15:58;;;;;;;1.83;0.98;;;12.00;99.90;;;;;;20450342;28;20051;-40
2023/01/04 10:26:17;;;;;;;4.85;1.27;;;12.00;99.90;;;;;;20455449;28;20177;-41
2023/01/04 10:36:26;;;;;;;3.60;1.25;;;12.00;99.90;;;;;;20492471;28;20067;-41
2023/01/04 10:46:57;;;;;;;1.70;0.70;;;12.00;99.90;;;;;;20521715;28;20047;-41
2023/01/04 10:57:14;;;;;;;2.55;0.82;;;12.10;99.90;;;;;;20495638;28;20992;-41
2023/01/04 11:07:20;;;;;;;3.47;1.23;;;12.10;99.90;;;;;;20526066;28;20066;-41
2023/01/04 11:17:23;;;;;;;4.93;1.55;;;12.10;99.90;;;;;;20500713;28;20184;-41
2023/01/04 11:27:30;;;;;;;3.20;0.70;;;12.20;99.90;;;;;;20489969;28;21359;-41
2023/01/04 11:37:33;;;;;;;1.88;0.68;;;12.20;99.90;;;;;;20521858;28;20494;-41
2023/01/04 11:47:54;;;;;;;1.92;0.93;;;12.40;99.90;;;;;;20514409;28;20086;-41
2023/01/04 11:58:12;;;;;;;1.98;0.80;;;12.50;99.90;;;;;;20539807;28;20726;-41
2023/01/04 12:08:34;;;;;;;1.83;0.95;;;12.60;99.90;;;;;;20545624;28;20047;-41
2023/01/04 12:18:39;;;;;;;5.38;0.88;;;12.60;99.90;;;;;;20533847;28;20793;-41
2023/01/04 12:28:43;;;;;;;4.30;0.82;;;12.70;99.90;;;;;;20514353;28;20133;-41
2023/01/04 12:39:03;;;;;;;5.50;1.73;;;12.80;99.90;;;;;;20502518;28;20498;-42
2023/01/04 12:49:24;;;;;;;0.98;0.43;;;12.80;99.90;;;;;;20516714;28;21861;-42
2023/01/04 12:59:38;;;;;;;3.63;1.70;;;12.70;99.90;;;;;;20519822;28;20043;-42
2023/01/04 13:09:45;;;;;;;4.05;1.52;;;12.70;99.90;;;;;;20527580;28;20772;-42
2023/01/04 13:19:48;;;;;;;4.13;1.75;;;12.70;99.90;;;;;;20495194;28;20090;-42
2023/01/04 13:29:50;;;;;;;3.72;1.67;;;12.70;99.90;;;;;;20494872;28;20098;-42
2023/01/04 13:39:59;;;;;;;10.00;2.38;;;12.70;99.90;;;;;;20495961;28;20066;-42
2023/01/04 13:50:00;;;;;;;7.32;2.13;;;12.70;99.90;;;;;;20451960;28;20054;-42
2023/01/04 14:00:04;;;;;;;4.78;1.75;;;12.80;99.90;;;;;;20503437;28;20105;-42
2023/01/04 14:10:15;;;;;;;6.32;2.08;;;12.70;99.90;;;;;;20507399;28;20094;-42
2023/01/04 14:20:19;;;;;;;2.80;1.02;;;12.60;99.90;;;;;;20492445;28;20100;-42
2023/01/04 14:30:20;;;;;;;2.70;1.50;;;12.60;99.90;;;;;;20484426;28;20137;-42
2023/01/04 14:40:26;;;;;;;5.00;1.60;;;12.60;99.90;;;;;;20483430;28;20042;-42
2023/01/04 14:50:27;;;;;;;3.22;1.02;;;12.60;99.90;;;;;;20468623;28;20684;-41
2023/01/04 15:00:28;;;;;;;2.05;1.20;;;12.70;99.90;;;;;;20491750;28;20517;-42
2023/01/04 15:10:29;;;;;;;3.03;1.10;;;12.80;99.90;;;;;;20453039;28;20617;-42
2023/01/04 15:20:30;;;;;;;6.18;2.17;;;12.80;99.90;;;;;;20496202;28;20508;-42
2023/01/04 15:30:32;;;;;;;7.10;2.38;;;12.80;99.90;;;;;;20475983;28;20150;-42
2023/01/04 15:40:34;;;;;;;5.43;2.00;;;12.80;99.90;;;;;;20481103;28;20152;-42
2023/01/04 15:50:39;;;;;;;4.45;2.08;;;12.70;99.90;;;;;;20513436;28;21354;-42
2023/01/04 16:00:40;;;;;;;9.48;2.75;;;12.70;99.90;;;;;;20545183;28;20043;-42
2023/01/04 16:10:41;;;;;;;7.60;2.10;;;12.60;99.90;;;;;;20544185;28;20093;-42
2023/01/04 16:20:42;;;;;;;5.15;2.22;;;12.60;99.90;;;;;;20534631;28;21925;-42
2023/01/04 16:30:43;;;;;;;12.45;2.83;;;12.60;99.90;;;;;;20503929;28;20046;-42
2023/01/04 16:40:54;;;;;;;5.75;2.70;;;12.60;99.90;;;;;;20514345;28;20444;-42
2023/01/04 16:50:55;;;;;;;4.30;2.10;;;12.50;99.90;;;;;;20498923;28;21717;-42
2023/01/04 17:01:03;;;;;;;14.10;3.13;;;12.40;99.90;;;;;;20473863;28;20050;-42
2023/01/04 17:11:09;;;;;;;7.38;2.88;;;12.50;99.90;;;;;;20498728;28;20101;-42
2023/01/04 17:21:11;;;;;;;7.75;2.78;;;12.30;99.90;;;;;;20496451;28;20107;-42
2023/01/04 17:31:15;;;;;;;8.15;2.80;;;12.30;99.90;;;;;;20534248;28;20421;-42
2023/01/04 17:41:23;;;;;;;11.05;3.20;;;12.40;99.90;;;;;;20520501;28;20389;-42
2023/01/04 17:51:24;;;;;;;;;;;12.30;99.90;;;;;;20495564;28;20485;-42
2023/01/04 18:01:26;;;;;;;10.52;3.30;;;12.30;99.90;;;;;;20508208;28;20012;-42
2023/01/04 18:11:27;;;;;;;18.25;4.47;;;12.30;99.90;;;;;;20503208;28;20070;-42
2023/01/04 18:21:30;;;;;;;13.00;4.00;;;12.30;99.90;;;;;;20496172;28;20527;-41
2023/01/04 18:31:31;;;;;;;10.10;3.55;;;12.30;99.90;;;;;;20478918;28;20085;-42
2023/01/04 18:41:32;;;;;;;14.35;5.55;;;12.30;99.90;;;;;;20508301;28;20109;-42
2023/01/04 18:51:35;;;;;;;22.92;7.35;;;12.00;99.90;;;;;;20520911;28;21395;-42
2023/01/04 19:01:36;;;;;;;10.70;4.20;;;12.00;99.90;;;;;;20487468;28;20786;-42
2023/01/04 19:11:37;;;;;;;8.77;2.88;;;12.10;99.90;;;;;;20477764;28;20058;-42
2023/01/04 19:21:38;;;;;;;11.25;4.00;;;12.00;99.90;;;;;;20491293;28;20205;-42
2023/01/04 19:31:39;;;;;;;10.25;4.00;;;12.10;99.90;;;;;;20501904;28;20099;-42
2023/01/04 19:41:40;;;;;;;9.95;4.05;;;12.10;99.90;;;;;;20499572;28;20065;-42
2023/01/04 19:51:43;;;;;;;11.85;3.22;;;12.20;99.90;;;;;;20538610;28;20549;-42
2023/01/04 20:01:47;;;;;;;9.48;3.30;;;12.30;99.90;;;;;;20535594;28;20476;-41
2023/01/04 20:11:48;;;;;;;18.30;3.47;;;12.30;99.90;;;;;;20496847;28;20129;-42
2023/01/04 20:21:50;;;;;;;8.02;3.38;;;12.20;99.90;;;;;;20486412;28;20129;-41
2023/01/04 20:31:51;;;;;;;5.97;2.67;;;12.20;99.90;;;;;;20410680;28;20556;-42
2023/01/04 20:52:11;;;;;;;7.22;3.72;;;12.20;99.90;;;;;;20434153;28;20066;-41
2023/01/04 21:02:14;;;;;;;6.65;2.47;;;12.10;99.90;;;;;;20473240;28;20265;-41
2023/01/04 21:12:16;;;;;;;6.88;2.70;;;12.10;99.90;;;;;;20474985;28;20767;-41
2023/01/04 21:22:17;;;;;;;8.55;2.03;;;12.00;99.90;;;;;;20495793;28;20300;-42
2023/01/04 21:32:18;;;;;;;10.60;2.60;;;12.00;99.90;;;;;;20482982;28;20070;-42
2023/01/04 21:42:19;;;;;;;18.98;3.15;;;11.80;99.90;;;;;;20466707;28;20077;-41
2023/01/04 21:52:21;;;;;;;8.57;3.88;;;11.70;99.90;;;;;;20502490;28;20038;-41
2023/01/04 22:02:22;;;;;;;12.45;3.03;;;11.60;99.90;;;;;;20503204;28;20498;-42
2023/01/04 22:12:23;;;;;;;11.38;4.50;;;11.50;99.90;;;;;;20492883;28;20431;-42
2023/01/04 22:22:24;;;;;;;7.85;3.75;;;11.30;99.90;;;;;;20499417;28;20062;-41
2023/01/04 22:32:25;;;;;;;9.38;3.08;;;11.30;99.90;;;;;;20499881;28;20074;-42
2023/01/04 22:42:26;;;;;;;12.30;3.50;;;11.40;99.90;;;;;;20494704;28;20194;-42
2023/01/04 22:52:27;;;;;;;5.93;2.83;;;11.40;99.90;;;;;;20496086;28;20146;-42
2023/01/04 23:02:28;;;;;;;17.38;4.63;;;11.40;99.90;;;;;;20495565;28;20037;-42
2023/01/04 23:12:29;;;;;;;8.20;2.92;;;11.30;99.90;;;;;;20496770;28;20046;-41
2023/01/04 23:22:30;;;;;;;6.90;2.72;;;11.30;99.90;;;;;;20496894;28;20077;-42
2023/01/04 23:32:31;;;;;;;15.30;3.83;;;11.20;99.90;;;;;;20497657;28;20043;-42
2023/01/04 23:42:32;;;;;;;9.52;3.38;;;11.10;99.90;;;;;;20494600;28;20039;-42
2023/01/04 23:52:33;;;;;;;13.07;2.85;;;11.00;99.90;;;;;;20499247;28;20505;-42
